sensor_id;sensor_type;location;lat;lon;timestamp;pressure;altitude;pressure_sealevel;temperature;humidity
74218;BME280;62579;47.288;18.646;2022-07-29T00:02:17;99837.88;;;26.55;43.77
74218;BME280;62579;47.288;18.646;2022-07-29T00:04:43;99845.53;;;26.55;43.72
74218;BME280;62579;47.288;18.646;2022-07-29T00:07:08;99839.94;;;26.55;43.93
74218;BME280;62579;47.288;18.646;2022-07-29T00:09:33;99832.19;;;26.53;43.85
74218;BME280;62579;47.288;18.646;2022-07-29T00:12:00;99835.00;;;26.53;43.87
74218;BME280;62579;47.288;18.646;2022-07-29T00:14:26;99830.12;;;26.54;44.02
74218;BME280;62579;47.288;18.646;2022-07-29T00:16:51;99830.12;;;26.54;43.80
74218;BME280;62579;47.288;18.646;2022-07-29T00:19:17;99834.88;;;26.51;43.87
74218;BME280;62579;47.288;18.646;2022-07-29T00:21:42;99829.28;;;26.51;43.88
74218;BME280;62579;47.288;18.646;2022-07-29T00:24:08;99839.72;;;26.51;43.92
74218;BME280;62579;47.288;18.646;2022-07-29T00:26:33;99838.25;;;26.50;44.04
74218;BME280;62579;47.288;18.646;2022-07-29T00:29:00;99838.88;;;26.48;43.89
74218;BME280;62579;47.288;18.646;2022-07-29T00:31:46;99840.94;;;26.48;43.79
74218;BME280;62579;47.288;18.646;2022-07-29T00:34:11;99843.72;;;26.48;43.87
74218;BME280;62579;47.288;18.646;2022-07-29T00:36:56;99842.88;;;26.45;43.69
74218;BME280;62579;47.288;18.646;2022-07-29T00:39:21;99844.34;;;26.46;43.55
74218;BME280;62579;47.288;18.646;2022-07-29T00:41:46;99845.66;;;26.45;43.49
74218;BME280;62579;47.288;18.646;2022-07-29T00:44:12;99842.03;;;26.43;43.62
74218;BME280;62579;47.288;18.646;2022-07-29T00:49:09;99845.56;;;26.43;43.53
74218;BME280;62579;47.288;18.646;2022-07-29T00:51:36;99838.63;;;26.44;43.71
74218;BME280;62579;47.288;18.646;2022-07-29T00:54:02;99839.34;;;26.45;43.47
74218;BME280;62579;47.288;18.646;2022-07-29T00:56:30;99835.84;;;26.44;43.50
74218;BME280;62579;47.288;18.646;2022-07-29T00:58:57;99831.72;;;26.45;43.66
74218;BME280;62579;47.288;18.646;2022-07-29T01:01:23;99834.50;;;26.45;43.57
74218;BME280;62579;47.288;18.646;2022-07-29T01:03:48;99840.69;;;26.44;43.28
74218;BME280;62579;47.288;18.646;2022-07-29T01:06:15;99838.63;;;26.44;43.30
74218;BME280;62579;47.288;18.646;2022-07-29T01:08:42;99830.88;;;26.43;43.37
74218;BME280;62579;47.288;18.646;2022-07-29T01:11:08;99833.03;;;26.44;43.42
74218;BME280;62579;47.288;18.646;2022-07-29T01:13:33;99839.97;;;26.43;43.51
74218;BME280;62579;47.288;18.646;2022-07-29T01:16:04;99833.66;;;26.43;43.54
74218;BME280;62579;47.288;18.646;2022-07-29T01:18:34;99830.25;;;26.44;43.52
74218;BME280;62579;47.288;18.646;2022-07-29T01:24:42;99837.88;;;26.44;43.58
74218;BME280;62579;47.288;18.646;2022-07-29T01:27:37;99832.19;;;26.42;43.63
74218;BME280;62579;47.288;18.646;2022-07-29T01:30:05;99836.44;;;26.43;43.69
74218;BME280;62579;47.288;18.646;2022-07-29T01:32:33;99842.03;;;26.43;43.68
74218;BME280;62579;47.288;18.646;2022-07-29T01:35:07;99840.69;;;26.44;43.64
74218;BME280;62579;47.288;18.646;2022-07-29T01:40:38;99836.56;;;26.45;43.46
74218;BME280;62579;47.288;18.646;2022-07-29T01:43:09;99839.34;;;26.45;43.65
74218;BME280;62579;47.288;18.646;2022-07-29T01:46:09;99842.16;;;26.45;43.85
74218;BME280;62579;47.288;18.646;2022-07-29T01:51:09;99840.81;;;26.46;43.66
74218;BME280;62579;47.288;18.646;2022-07-29T01:53:50;99838.63;;;26.44;43.50
74218;BME280;62579;47.288;18.646;2022-07-29T01:56:18;99834.41;;;26.43;43.58
74218;BME280;62579;47.288;18.646;2022-07-29T01:58:45;99834.41;;;26.43;43.77
74218;BME280;62579;47.288;18.646;2022-07-29T02:01:13;99835.84;;;26.44;43.61
74218;BME280;62579;47.288;18.646;2022-07-29T02:03:43;99833.03;;;26.44;43.64
74218;BME280;62579;47.288;18.646;2022-07-29T02:06:11;99832.31;;;26.44;43.70
74218;BME280;62579;47.288;18.646;2022-07-29T02:08:38;99830.88;;;26.43;43.68
74218;BME280;62579;47.288;18.646;2022-07-29T02:11:05;99826.72;;;26.44;43.79
74218;BME280;62579;47.288;18.646;2022-07-29T02:13:34;99827.34;;;26.42;43.72
74218;BME280;62579;47.288;18.646;2022-07-29T02:16:02;99831.59;;;26.43;43.84
74218;BME280;62579;47.288;18.646;2022-07-29T02:18:30;99826.72;;;26.44;43.85
74218;BME280;62579;47.288;18.646;2022-07-29T02:20:56;99830.88;;;26.43;43.83
74218;BME280;62579;47.288;18.646;2022-07-29T02:23:23;99829.41;;;26.42;43.83
74218;BME280;62579;47.288;18.646;2022-07-29T02:25:52;99831.59;;;26.43;43.94
74218;BME280;62579;47.288;18.646;2022-07-29T02:28:18;99836.44;;;26.43;43.89
74218;BME280;62579;47.288;18.646;2022-07-29T02:30:45;99836.44;;;26.43;43.90
74218;BME280;62579;47.288;18.646;2022-07-29T02:33:13;99832.19;;;26.42;43.98
74218;BME280;62579;47.288;18.646;2022-07-29T02:35:40;99830.03;;;26.40;43.92
74218;BME280;62579;47.288;18.646;2022-07-29T02:38:08;99832.19;;;26.42;43.91
74218;BME280;62579;47.288;18.646;2022-07-29T02:40:54;99832.19;;;26.42;43.85
74218;BME280;62579;47.288;18.646;2022-07-29T02:43:22;99832.09;;;26.40;43.91
74218;BME280;62579;47.288;18.646;2022-07-29T02:45:51;99830.03;;;26.40;43.95
74218;BME280;62579;47.288;18.646;2022-07-29T02:48:22;99836.34;;;26.41;43.92
74218;BME280;62579;47.288;18.646;2022-07-29T02:50:52;99821.66;;;26.40;43.92
74218;BME280;62579;47.288;18.646;2022-07-29T02:53:23;99827.81;;;26.39;43.95
74218;BME280;62579;47.288;18.646;2022-07-29T02:55:59;99831.34;;;26.39;43.92
74218;BME280;62579;47.288;18.646;2022-07-29T02:58:44;99828.56;;;26.39;43.93
74218;BME280;62579;47.288;18.646;2022-07-29T03:01:24;99823.13;;;26.30;44.10
74218;BME280;62579;47.288;18.646;2022-07-29T03:03:53;99826.25;;;26.36;44.04
74218;BME280;62579;47.288;18.646;2022-07-29T03:06:21;99831.13;;;26.35;44.07
74218;BME280;62579;47.288;18.646;2022-07-29T03:09:07;99835.97;;;26.35;44.04
74218;BME280;62579;47.288;18.646;2022-07-29T03:11:34;99833.19;;;26.35;44.01
74218;BME280;62579;47.288;18.646;2022-07-29T03:13:59;99840.09;;;26.34;44.12
74218;BME280;62579;47.288;18.646;2022-07-29T03:16:26;99839.59;;;26.25;44.22
74218;BME280;62579;47.288;18.646;2022-07-29T03:18:52;99832.22;;;26.30;44.26
74218;BME280;62579;47.288;18.646;2022-07-29T03:21:17;99836.44;;;26.31;44.19
74218;BME280;62579;47.288;18.646;2022-07-29T03:23:46;99829.53;;;26.32;44.17
74218;BME280;62579;47.288;18.646;2022-07-29T03:26:12;99835.84;;;26.33;44.21
74218;BME280;62579;47.288;18.646;2022-07-29T03:28:38;99837.91;;;26.32;44.23
74218;BME280;62579;47.288;18.646;2022-07-29T03:31:03;99828.06;;;26.31;44.19
74218;BME280;62579;47.288;18.646;2022-07-29T03:33:28;99835.72;;;26.31;44.29
74218;BME280;62579;47.288;18.646;2022-07-29T03:35:55;99837.81;;;26.30;44.26
74218;BME280;62579;47.288;18.646;2022-07-29T03:38:23;99837.81;;;26.30;44.25
74218;BME280;62579;47.288;18.646;2022-07-29T03:40:53;99838.50;;;26.31;44.25
74218;BME280;62579;47.288;18.646;2022-07-29T03:43:20;99837.19;;;26.32;44.37
74218;BME280;62579;47.288;18.646;2022-07-29T03:45:47;99840.59;;;26.30;44.28
74218;BME280;62579;47.288;18.646;2022-07-29T03:48:17;99832.22;;;26.30;44.25
74218;BME280;62579;47.288;18.646;2022-07-29T03:50:44;99837.06;;;26.30;44.28
74218;BME280;62579;47.288;18.646;2022-07-29T03:53:10;99837.06;;;26.30;44.36
74218;BME280;62579;47.288;18.646;2022-07-29T03:55:41;99834.88;;;26.28;44.35
74218;BME280;62579;47.288;18.646;2022-07-29T03:58:07;99846.16;;;26.30;44.47
74218;BME280;62579;47.288;18.646;2022-07-29T04:00:34;99839.13;;;26.29;44.52
74218;BME280;62579;47.288;18.646;2022-07-29T04:03:00;99849.56;;;26.29;44.55
74218;BME280;62579;47.288;18.646;2022-07-29T04:05:26;99851.59;;;26.28;44.52
74218;BME280;62579;47.288;18.646;2022-07-29T04:07:52;99854.41;;;26.28;44.58
74218;BME280;62579;47.288;18.646;2022-07-29T04:10:17;99846.03;;;26.28;44.61
74218;BME280;62579;47.288;18.646;2022-07-29T04:12:43;99844.59;;;26.27;44.58
74218;BME280;62579;47.288;18.646;2022-07-29T04:15:09;99853.66;;;26.27;44.63
74218;BME280;62579;47.288;18.646;2022-07-29T04:17:35;99844.59;;;26.27;44.65
74218;BME280;62579;47.288;18.646;2022-07-29T04:20:00;99848.09;;;26.27;44.71
74218;BME280;62579;47.288;18.646;2022-07-29T04:22:26;99849.44;;;26.27;44.74
74218;BME280;62579;47.288;18.646;2022-07-29T04:24:51;99847.97;;;26.25;44.73
74218;BME280;62579;47.288;18.646;2022-07-29T04:27:16;99853.66;;;26.27;44.94
74218;BME280;62579;47.288;18.646;2022-07-29T04:29:42;99847.38;;;26.27;44.84
74218;BME280;62579;47.288;18.646;2022-07-29T04:32:07;99850.16;;;26.27;44.88
74218;BME280;62579;47.288;18.646;2022-07-29T04:34:32;99846.66;;;26.27;44.90
74218;BME280;62579;47.288;18.646;2022-07-29T04:36:58;99855.75;;;26.27;44.94
74218;BME280;62579;47.288;18.646;2022-07-29T04:39:23;99852.97;;;26.27;45.00
74218;BME280;62579;47.288;18.646;2022-07-29T04:41:49;99852.97;;;26.27;45.10
74218;BME280;62579;47.288;18.646;2022-07-29T04:44:15;99855.13;;;26.29;45.16
74218;BME280;62579;47.288;18.646;2022-07-29T04:46:40;99853.66;;;26.27;45.21
74218;BME280;62579;47.288;18.646;2022-07-29T04:49:05;99863.50;;;26.29;45.20
74218;BME280;62579;47.288;18.646;2022-07-29T04:51:31;99856.59;;;26.30;45.23
74218;BME280;62579;47.288;18.646;2022-07-29T04:53:56;99851.00;;;26.30;45.34
74218;BME280;62579;47.288;18.646;2022-07-29T04:56:22;99847.50;;;26.29;45.28
74218;BME280;62579;47.288;18.646;2022-07-29T04:58:47;99849.56;;;26.29;45.35
74218;BME280;62579;47.288;18.646;2022-07-29T05:01:12;99852.34;;;26.29;45.42
74218;BME280;62579;47.288;18.646;2022-07-29T05:03:39;99851.00;;;26.30;45.48
74218;BME280;62579;47.288;18.646;2022-07-29T05:06:04;99855.97;;;26.31;45.53
74218;BME280;62579;47.288;18.646;2022-07-29T05:08:30;99855.25;;;26.31;45.60
74218;BME280;62579;47.288;18.646;2022-07-29T05:10:55;99851.75;;;26.30;45.63
74218;BME280;62579;47.288;18.646;2022-07-29T05:13:20;99857.34;;;26.30;45.65
74218;BME280;62579;47.288;18.646;2022-07-29T05:15:45;99854.53;;;26.30;45.63
74218;BME280;62579;47.288;18.646;2022-07-29T05:18:11;99855.97;;;26.31;45.68
74218;BME280;62579;47.288;18.646;2022-07-29T05:20:36;99855.97;;;26.31;45.65
74218;BME280;62579;47.288;18.646;2022-07-29T05:23:02;99863.03;;;26.32;45.74
74218;BME280;62579;47.288;18.646;2022-07-29T05:25:28;99863.75;;;26.33;45.76
74218;BME280;62579;47.288;18.646;2022-07-29T05:27:54;99865.19;;;26.34;45.76
74218;BME280;62579;47.288;18.646;2022-07-29T05:30:20;99862.53;;;26.36;45.73
74218;BME280;62579;47.288;18.646;2022-07-29T05:32:46;99867.41;;;26.35;45.76
74218;BME280;62579;47.288;18.646;2022-07-29T05:35:12;99860.47;;;26.36;45.79
74218;BME280;62579;47.288;18.646;2022-07-29T05:37:38;99862.41;;;26.34;46.07
74218;BME280;62579;47.288;18.646;2022-07-29T05:40:04;99856.34;;;26.37;45.93
74218;BME280;62579;47.288;18.646;2022-07-29T05:42:30;99859.13;;;26.37;45.91
74218;BME280;62579;47.288;18.646;2022-07-29T05:44:55;99862.66;;;26.38;45.95
74218;BME280;62579;47.288;18.646;2022-07-29T05:47:21;99861.94;;;26.37;45.96
74218;BME280;62579;47.288;18.646;2022-07-29T05:49:47;99864.72;;;26.37;46.01
74218;BME280;62579;47.288;18.646;2022-07-29T05:52:12;99856.34;;;26.37;46.02
74218;BME280;62579;47.288;18.646;2022-07-29T05:54:38;99862.66;;;26.38;46.03
74218;BME280;62579;47.288;18.646;2022-07-29T05:57:04;99857.19;;;26.40;45.97
74218;BME280;62579;47.288;18.646;2022-07-29T05:59:30;99857.19;;;26.40;45.99
74218;BME280;62579;47.288;18.646;2022-07-29T06:01:56;99860.84;;;26.42;45.98
74218;BME280;62579;47.288;18.646;2022-07-29T06:04:22;99865.69;;;26.42;45.98
74218;BME280;62579;47.288;18.646;2022-07-29T06:06:47;99867.16;;;26.43;46.02
74218;BME280;62579;47.288;18.646;2022-07-29T06:09:12;99859.62;;;26.45;45.99
74218;BME280;62579;47.288;18.646;2022-07-29T06:11:38;99866.69;;;26.46;45.90
74218;BME280;62579;47.288;18.646;2022-07-29T06:14:04;99869.56;;;26.48;45.88
74218;BME280;62579;47.288;18.646;2022-07-29T06:16:29;99866.91;;;26.50;45.89
74218;BME280;62579;47.288;18.646;2022-07-29T06:18:54;99865.56;;;26.51;45.88
74218;BME280;62579;47.288;18.646;2022-07-29T06:21:20;99865.06;;;26.55;45.86
74218;BME280;62579;47.288;18.646;2022-07-29T06:23:45;99859.50;;;26.55;45.91
74218;BME280;62579;47.288;18.646;2022-07-29T06:26:10;99872.13;;;26.56;45.95
74218;BME280;62579;47.288;18.646;2022-07-29T06:28:36;99865.91;;;26.57;46.24
74218;BME280;62579;47.288;18.646;2022-07-29T06:31:01;99871.63;;;26.59;46.22
74218;BME280;62579;47.288;18.646;2022-07-29T06:33:27;99868.97;;;26.61;46.40
74218;BME280;62579;47.288;18.646;2022-07-29T06:35:52;99878.06;;;26.62;46.57
74218;BME280;62579;47.288;18.646;2022-07-29T06:38:18;99869.06;;;26.63;46.47
74218;BME280;62579;47.288;18.646;2022-07-29T06:40:44;99872.72;;;26.66;46.40
74218;BME280;62579;47.288;18.646;2022-07-29T06:43:30;99879.75;;;26.67;46.54
74218;BME280;62579;47.288;18.646;2022-07-29T06:45:59;99876.50;;;26.70;46.65
74218;BME280;62579;47.288;18.646;2022-07-29T06:48:24;99875.75;;;26.70;46.62
74218;BME280;62579;47.288;18.646;2022-07-29T06:50:49;99885.56;;;26.71;46.59
74218;BME280;62579;47.288;18.646;2022-07-29T06:53:15;99880.84;;;26.73;46.74
74218;BME280;62579;47.288;18.646;2022-07-29T06:55:40;99882.28;;;26.74;46.72
74218;BME280;62579;47.288;18.646;2022-07-29T06:58:05;99886.56;;;26.75;46.64
74218;BME280;62579;47.288;18.646;2022-07-29T07:00:32;99883.91;;;26.77;46.54
74218;BME280;62579;47.288;18.646;2022-07-29T07:02:57;99889.94;;;26.74;46.75
74218;BME280;62579;47.288;18.646;2022-07-29T07:05:23;99878.87;;;26.76;46.70
74218;BME280;62579;47.288;18.646;2022-07-29T07:07:48;99882.56;;;26.78;46.72
74218;BME280;62579;47.288;18.646;2022-07-29T07:10:13;99877.09;;;26.80;46.75
74218;BME280;62579;47.288;18.646;2022-07-29T07:12:39;99886.31;;;26.83;46.73
74218;BME280;62579;47.288;18.646;2022-07-29T07:15:05;99882.19;;;26.84;46.65
74218;BME280;62579;47.288;18.646;2022-07-29T07:17:31;99885.69;;;26.84;46.65
74218;BME280;62579;47.288;18.646;2022-07-29T07:19:56;99880.25;;;26.87;46.61
74218;BME280;62579;47.288;18.646;2022-07-29T07:22:21;99880.97;;;26.87;46.63
74218;BME280;62579;47.288;18.646;2022-07-29T07:24:47;99878.16;;;26.87;46.63
74218;BME280;62579;47.288;18.646;2022-07-29T07:27:12;99874.16;;;26.90;46.61
74218;BME280;62579;47.288;18.646;2022-07-29T07:29:37;99869.31;;;26.91;46.63
74218;BME280;62579;47.288;18.646;2022-07-29T07:32:06;99880.47;;;26.91;46.72
74218;BME280;62579;47.288;18.646;2022-07-29T07:34:31;99878.41;;;26.91;46.82
74218;BME280;62579;47.288;18.646;2022-07-29T07:36:57;99865.91;;;26.92;46.79
74218;BME280;62579;47.288;18.646;2022-07-29T07:39:22;99867.34;;;26.93;46.83
74218;BME280;62579;47.288;18.646;2022-07-29T07:41:47;99873.06;;;26.95;46.82
74218;BME280;62579;47.288;18.646;2022-07-29T07:44:13;99871.00;;;26.96;46.87
74218;BME280;62579;47.288;18.646;2022-07-29T07:46:38;99875.25;;;26.97;46.85
74218;BME280;62579;47.288;18.646;2022-07-29T07:49:03;99873.19;;;26.97;46.87
74218;BME280;62579;47.288;18.646;2022-07-29T07:51:29;99866.25;;;26.98;46.85
74218;BME280;62579;47.288;18.646;2022-07-29T07:53:54;99873.31;;;26.99;46.86
74218;BME280;62579;47.288;18.646;2022-07-29T07:56:19;99866.38;;;27.00;46.83
74218;BME280;62579;47.288;18.646;2022-07-29T07:58:45;99863.69;;;27.02;46.83
74218;BME280;62579;47.288;18.646;2022-07-29T08:01:10;99863.06;;;27.04;46.83
74218;BME280;62579;47.288;18.646;2022-07-29T08:03:36;99865.16;;;27.03;46.87
74218;BME280;62579;47.288;18.646;2022-07-29T08:06:03;99863.06;;;27.04;46.93
74218;BME280;62579;47.288;18.646;2022-07-29T08:08:28;99863.91;;;27.06;46.95
74218;BME280;62579;47.288;18.646;2022-07-29T08:10:54;99864.03;;;27.08;47.41
74218;BME280;62579;47.288;18.646;2022-07-29T08:13:26;99866.22;;;27.10;47.49
74218;BME280;62579;47.288;18.646;2022-07-29T08:15:53;99864.28;;;27.12;47.50
74218;BME280;62579;47.288;18.646;2022-07-29T08:18:23;99863.53;;;27.12;47.52
74218;BME280;62579;47.288;18.646;2022-07-29T08:20:50;99861.59;;;27.14;47.55
74218;BME280;62579;47.288;18.646;2022-07-29T08:23:15;99870.09;;;27.16;47.60
74218;BME280;62579;47.288;18.646;2022-07-29T08:25:41;99858.19;;;27.16;47.77
74218;BME280;62579;47.288;18.646;2022-07-29T08:28:07;99861.69;;;27.16;47.82
74218;BME280;62579;47.288;18.646;2022-07-29T08:30:32;99864.63;;;27.18;47.79
74218;BME280;62579;47.288;18.646;2022-07-29T08:32:58;99868.16;;;27.19;47.86
74218;BME280;62579;47.288;18.646;2022-07-29T08:35:24;99869.59;;;27.20;47.86
74218;BME280;62579;47.288;18.646;2022-07-29T08:37:50;99861.22;;;27.20;47.89
74218;BME280;62579;47.288;18.646;2022-07-29T08:40:16;99862.69;;;27.21;48.05
74218;BME280;62579;47.288;18.646;2022-07-29T08:42:41;99858.53;;;27.22;48.06
74218;BME280;62579;47.288;18.646;2022-07-29T08:45:07;99862.78;;;27.23;48.07
74218;BME280;62579;47.288;18.646;2022-07-29T08:47:33;99863.50;;;27.23;48.05
74218;BME280;62579;47.288;18.646;2022-07-29T08:49:58;99856.56;;;27.24;48.18
74218;BME280;62579;47.288;18.646;2022-07-29T08:52:25;99862.88;;;27.25;48.19
74218;BME280;62579;47.288;18.646;2022-07-29T08:54:52;99852.56;;;27.27;48.22
74218;BME280;62579;47.288;18.646;2022-07-29T08:57:19;99856.09;;;27.28;48.22
74218;BME280;62579;47.288;18.646;2022-07-29T08:59:46;99854.00;;;27.28;48.23
74218;BME280;62579;47.288;18.646;2022-07-29T09:02:12;99854.00;;;27.28;48.24
74218;BME280;62579;47.288;18.646;2022-07-29T09:04:43;99855.13;;;27.23;48.56
74218;BME280;62579;47.288;18.646;2022-07-29T09:07:08;99852.91;;;27.33;48.36
74218;BME280;62579;47.288;18.646;2022-07-29T09:09:34;99851.31;;;27.30;48.48
74218;BME280;62579;47.288;18.646;2022-07-29T09:12:00;99849.91;;;27.29;48.51
74218;BME280;62579;47.288;18.646;2022-07-29T09:14:26;99842.22;;;27.30;48.41
74218;BME280;62579;47.288;18.646;2022-07-29T09:16:53;99845.75;;;27.30;48.46
74218;BME280;62579;47.288;18.646;2022-07-29T09:19:29;99844.50;;;27.33;48.52
74218;BME280;62579;47.288;18.646;2022-07-29T09:21:56;99841.81;;;27.35;48.63
74218;BME280;62579;47.288;18.646;2022-07-29T09:24:43;99837.59;;;27.34;48.68
74218;BME280;62579;47.288;18.646;2022-07-29T09:27:12;99837.59;;;27.34;48.60
74218;BME280;62579;47.288;18.646;2022-07-29T09:29:43;99837.59;;;27.34;48.68
74218;BME280;62579;47.288;18.646;2022-07-29T09:32:09;99832.13;;;27.36;48.59
74218;BME280;62579;47.288;18.646;2022-07-29T09:34:35;99839.03;;;27.35;48.75
74218;BME280;62579;47.288;18.646;2022-07-29T09:37:02;99839.03;;;27.35;48.92
74218;BME280;62579;47.288;18.646;2022-07-29T09:39:35;99827.25;;;27.37;49.22
74218;BME280;62579;47.288;18.646;2022-07-29T09:42:04;99823.00;;;27.36;49.38
74218;BME280;62579;47.288;18.646;2022-07-29T09:44:47;99825.19;;;27.37;49.49
74218;BME280;62579;47.288;18.646;2022-07-29T09:47:13;99823.25;;;27.40;49.53
74218;BME280;62579;47.288;18.646;2022-07-29T09:49:56;99825.44;;;27.41;49.51
74218;BME280;62579;47.288;18.646;2022-07-29T09:52:27;99817.16;;;27.43;49.44
74218;BME280;62579;47.288;18.646;2022-07-29T09:54:52;99823.97;;;27.40;49.47
74218;BME280;62579;47.288;18.646;2022-07-29T09:57:25;99816.44;;;27.43;49.45
74218;BME280;62579;47.288;18.646;2022-07-29T09:59:58;99807.44;;;27.45;49.49
74218;BME280;62579;47.288;18.646;2022-07-29T10:02:28;99808.25;;;27.47;49.58
74218;BME280;62579;47.288;18.646;2022-07-29T10:23:16;99814.34;;;27.43;49.63
74218;BME280;62579;47.288;18.646;2022-07-29T10:25:41;99805.88;;;27.41;49.66
74218;BME280;62579;47.288;18.646;2022-07-29T10:28:06;99804.53;;;27.42;49.52
74218;BME280;62579;47.288;18.646;2022-07-29T10:30:32;99794.09;;;27.43;49.48
74218;BME280;62579;47.288;18.646;2022-07-29T10:41:37;99798.22;;;27.42;49.75
74218;BME280;62579;47.288;18.646;2022-07-29T10:44:19;99783.59;;;27.43;49.81
74218;BME280;62579;47.288;18.646;2022-07-29T10:46:45;99776.88;;;27.49;49.69
74218;BME280;62579;47.288;18.646;2022-07-29T10:49:16;99781.16;;;27.50;49.74
74218;BME280;62579;47.288;18.646;2022-07-29T10:51:54;99779.81;;;27.51;49.85
74218;BME280;62579;47.288;18.646;2022-07-29T10:57:25;99780.66;;;27.53;49.96
74218;BME280;62579;47.288;18.646;2022-07-29T11:05:06;99768.25;;;27.56;49.92
74218;BME280;62579;47.288;18.646;2022-07-29T11:07:34;99766.88;;;27.57;50.10
74218;BME280;62579;47.288;18.646;2022-07-29T11:20:50;99726.72;;;27.64;51.04
74218;BME280;62579;47.288;18.646;2022-07-29T11:23:20;99734.59;;;27.68;51.39
74218;BME280;62579;47.288;18.646;2022-07-29T11:28:50;99729.22;;;27.72;51.44
74218;BME280;62579;47.288;18.646;2022-07-29T11:39:31;99723.53;;;27.83;51.72
74218;BME280;62579;47.288;18.646;2022-07-29T11:47:22;99728.19;;;27.92;52.59
74218;BME280;62579;47.288;18.646;2022-07-29T11:49:48;99718.56;;;27.95;52.22
74218;BME280;62579;47.288;18.646;2022-07-29T11:52:13;99720.72;;;27.97;52.23
74218;BME280;62579;47.288;18.646;2022-07-29T11:54:42;99717.94;;;27.97;52.18
74218;BME280;62579;47.288;18.646;2022-07-29T11:57:07;99718.06;;;27.99;51.97
74218;BME280;62579;47.288;18.646;2022-07-29T11:59:39;99719.41;;;27.98;51.96
74218;BME280;62579;47.288;18.646;2022-07-29T12:02:05;99710.41;;;27.99;51.91
74218;BME280;62579;47.288;18.646;2022-07-29T12:04:30;99716.00;;;27.99;52.01
74218;BME280;62579;47.288;18.646;2022-07-29T12:06:56;99711.09;;;28.00;51.92
74218;BME280;62579;47.288;18.646;2022-07-29T12:09:22;99712.47;;;27.99;51.91
74218;BME280;62579;47.288;18.646;2022-07-29T12:11:48;99709.66;;;27.99;52.13
74218;BME280;62579;47.288;18.646;2022-07-29T12:14:33;99705.50;;;28.00;52.07
74218;BME280;62579;47.288;18.646;2022-07-29T12:16:59;99699.19;;;27.99;52.14
74218;BME280;62579;47.288;18.646;2022-07-29T12:19:28;99697.09;;;28.00;52.12
74218;BME280;62579;47.288;18.646;2022-07-29T12:21:55;99703.56;;;28.02;52.07
74218;BME280;62579;47.288;18.646;2022-07-29T13:57:53;99600.88;;;27.91;53.22
74218;BME280;62579;47.288;18.646;2022-07-29T14:00:18;99595.81;;;27.88;53.22
74218;BME280;62579;47.288;18.646;2022-07-29T14:02:44;99606.78;;;27.84;53.28
74218;BME280;62579;47.288;18.646;2022-07-29T14:05:09;99605.97;;;27.81;53.32
74218;BME280;62579;47.288;18.646;2022-07-29T14:07:38;99605.97;;;27.81;53.91
74218;BME280;62579;47.288;18.646;2022-07-29T14:10:04;99604.53;;;27.80;54.04
74218;BME280;62579;47.288;18.646;2022-07-29T14:12:30;99602.44;;;27.81;53.81
74218;BME280;62579;47.288;18.646;2022-07-29T14:14:55;99603.78;;;27.80;53.82
74218;BME280;62579;47.288;18.646;2022-07-29T14:17:21;99601.72;;;27.80;53.72
74218;BME280;62579;47.288;18.646;2022-07-29T14:19:46;99609.50;;;27.82;53.60
74218;BME280;62579;47.288;18.646;2022-07-29T14:22:12;99596.22;;;27.82;53.47
74218;BME280;62579;47.288;18.646;2022-07-29T14:24:37;99588.56;;;27.83;53.26
74218;BME280;62579;47.288;18.646;2022-07-29T14:27:04;99583.06;;;27.85;53.04
74218;BME280;62579;47.288;18.646;2022-07-29T14:29:29;99584.53;;;27.86;52.46
74218;BME280;62579;47.288;18.646;2022-07-29T14:31:55;99581.72;;;27.86;51.63
74218;BME280;62579;47.288;18.646;2022-07-29T14:34:20;99581.09;;;27.87;51.21
74218;BME280;62579;47.288;18.646;2022-07-29T14:36:46;99577.97;;;27.95;50.77
74218;BME280;62579;47.288;18.646;2022-07-29T16:03:37;99456.94;;;35.47;23.72
74218;BME280;62579;47.288;18.646;2022-07-29T16:06:03;99458.16;;;35.78;23.34
74218;BME280;62579;47.288;18.646;2022-07-29T16:08:29;99467.59;;;35.93;22.18
74218;BME280;62579;47.288;18.646;2022-07-29T16:10:54;99466.34;;;36.02;22.52
74218;BME280;62579;47.288;18.646;2022-07-29T16:13:19;99462.16;;;36.07;22.36
74218;BME280;62579;47.288;18.646;2022-07-29T16:15:45;99463.25;;;35.86;23.01
74218;BME280;62579;47.288;18.646;2022-07-29T16:18:10;99462.00;;;35.99;23.29
74218;BME280;62579;47.288;18.646;2022-07-29T16:20:36;99469.00;;;35.92;21.94
74218;BME280;62579;47.288;18.646;2022-07-29T16:25:40;99461.22;;;35.92;22.29
74218;BME280;62579;47.288;18.646;2022-07-29T16:28:06;99445.84;;;35.60;22.75
74218;BME280;62579;47.288;18.646;2022-07-29T16:30:32;99445.34;;;35.73;23.09
74218;BME280;62579;47.288;18.646;2022-07-29T16:32:58;99445.19;;;35.63;23.16
74218;BME280;62579;47.288;18.646;2022-07-29T16:35:23;99442.94;;;35.55;23.34
74218;BME280;62579;47.288;18.646;2022-07-29T16:37:49;99441.09;;;35.30;23.04
74218;BME280;62579;47.288;18.646;2022-07-29T16:40:14;99439.91;;;35.43;23.76
74218;BME280;62579;47.288;18.646;2022-07-29T16:42:40;99443.00;;;35.60;23.81
74218;BME280;62579;47.288;18.646;2022-07-29T16:45:05;99446.47;;;35.54;23.34
74218;BME280;62579;47.288;18.646;2022-07-29T16:47:31;99449.56;;;35.28;22.91
74218;BME280;62579;47.288;18.646;2022-07-29T16:49:56;99446.53;;;35.18;22.97
74218;BME280;62579;47.288;18.646;2022-07-29T16:52:22;99444.59;;;35.29;23.55
74218;BME280;62579;47.288;18.646;2022-07-29T16:54:47;99444.75;;;34.99;23.71
74218;BME280;62579;47.288;18.646;2022-07-29T16:57:13;99447.56;;;34.99;24.33
74218;BME280;62579;47.288;18.646;2022-07-29T16:59:38;99445.44;;;34.97;24.65
74218;BME280;62579;47.288;18.646;2022-07-29T17:02:03;99445.22;;;34.85;24.96
74218;BME280;62579;47.288;18.646;2022-07-29T17:04:30;99442.88;;;34.74;26.00
74218;BME280;62579;47.288;18.646;2022-07-29T17:06:56;99441.84;;;34.59;26.54